Martinsville, Virginia
Current Conditions -  °F | °C
As of 2:35 PM on Saturday 25 Oct 2014 (Local Time) from KMTV Reporting Station
Clear Clear  
Wind Chill: 73°   Ceiling: Unl
Heat Index: 73°   Visibility: 10mi
Dew Point: 39°   Wind: 3mph
Humidity: 29%   Direction: 240°WSW
Pressure: 29.96"   Gusts: NA
Location:  36.69°N, 79.87°W
Report Text: KMTV 251835Z AUTO 24003KT 10SM CLR 23/04 A2996 RMK AO2 T02300039
Loading
Personal Weather Stations






























Interactive Weather Map
Tropical Storm Tracking
New forecast layout! Learn more

10-Day Weather Forecast

Advertisements
Track Severe Weather on mobile